Airfield :
LOGIN :

Register | Disclaimer

   EN    FR    IT 

 










Legend :    VFR   Marginal VFR   IFR   Intensive IFR   Very Intensive IFR
Visi :
Ceiling :
>= 8 km
>= 3000ft
5 to 8 km
1000 to 3000 ft
1500m to 5 km
500 to 1000 ft
800 to 1500m
200 to 500 ft
< 800m
< 200 ft
Symbols :   Thunderstorms  Fog  Heavy snow  Heavy precipitations  Wind > 20 kt
SIGMETs :     Misc.  Thunderstorms  Icing  Turbulence  Mountain Waves  Volcanic Ashes






- Airport Elevation : 336 ft
- IATA code : GCI


EGJB - Guernsey

CURRENT METAR :
  • 032050Z 23017KT 9999 BKN025 15/12 Q1018

EXPIRED METARs :
  • 031950Z 23016KT 9999 FEW040 16/12 Q1018
  • 031850Z 25016KT 9999 FEW040 15/12 Q1019

TAF TAF EGJB
Valid from the 03 at 21:00 until the 04 at 06:00 UTC


032004Z 0321/0406 23020G30KT 9999 BKN012
TEMPO 0321/0400 8000 -RADZ BKN008
BECMG 0400/0402 8000 BKN005
TEMPO 0400/0406 5000 RADZ BR BKN002
PROB40
TEMPO 0403/0406 0800 FG BKN000
ATIS : +44 1481 238 957



MET'MAP, your aeronautical weather chart ! - Copyright ORBIFLY December 2007 - Disclaimer

ORBIFLY MET'MAP TEAM :

Programming & Development : Alexandra Zaïnal
Concept & original design : Baudouin d'Aumeries
Assistance for programming : Marc-Olivier Méhu
Technical & hardware support : Manuel Goepfert

Contact : metmap@orbifly.com




SOURCES & CREDITS :

   NOAA